createdAt,value
2023-04-11T00:02:24.430Z,5.78
2023-04-11T00:05:31.376Z,5.97
2023-04-11T00:08:33.830Z,6.02
2023-04-11T00:11:36.264Z,5.90
2023-04-11T00:14:38.637Z,5.89
2023-04-11T00:17:41.689Z,5.97
2023-04-11T00:20:44.061Z,5.95
2023-04-11T00:23:46.403Z,5.76
2023-04-11T00:26:48.724Z,5.81
2023-04-11T00:29:53.013Z,5.69
2023-04-11T00:32:55.821Z,5.69
2023-04-11T00:35:58.411Z,5.70
2023-04-11T00:39:03.980Z,5.77
2023-04-11T00:42:09.281Z,5.97
2023-04-11T00:45:12.192Z,5.83
2023-04-11T00:48:15.028Z,5.84
2023-04-11T00:51:18.622Z,5.88
2023-04-11T00:54:21.341Z,5.95
2023-04-11T00:57:26.123Z,5.80
2023-04-11T01:00:29.182Z,5.56
2023-04-11T01:03:32.814Z,5.84
2023-04-11T01:06:35.548Z,5.83
2023-04-11T01:09:38.196Z,5.73
2023-04-11T01:12:41.210Z,5.60
2023-04-11T01:15:43.507Z,5.72
2023-04-11T01:18:46.058Z,5.83
2023-04-11T01:21:49.452Z,5.76
2023-04-11T01:24:52.175Z,5.72
2023-04-11T01:27:56.490Z,5.60
2023-04-11T01:30:59.136Z,5.79
2023-04-11T01:34:02.685Z,5.83
2023-04-11T01:37:05.075Z,5.65
2023-04-11T01:40:08.189Z,5.83
2023-04-11T01:43:11.328Z,5.93
2023-04-11T01:46:14.539Z,5.81
2023-04-11T01:49:19.099Z,6.01
2023-04-11T01:52:22.885Z,6.03
2023-04-11T01:55:25.432Z,6.00
2023-04-11T01:58:27.938Z,5.88
2023-04-11T02:01:30.669Z,5.80
2023-04-11T02:04:33.592Z,5.73
2023-04-11T02:07:36.257Z,5.98
2023-04-11T02:10:38.576Z,6.02
2023-04-11T02:13:41.119Z,6.18
2023-04-11T02:16:56.034Z,6.19
2023-04-11T02:19:58.452Z,6.13
2023-04-11T02:23:04.383Z,6.15
2023-04-11T02:26:06.871Z,6.01
2023-04-11T02:29:09.275Z,6.02
2023-04-11T02:32:11.807Z,6.02
2023-04-11T02:35:14.180Z,5.97
2023-04-11T02:38:16.639Z,5.75
2023-04-11T02:41:19.025Z,6.01
2023-04-11T02:44:22.689Z,5.93
2023-04-11T02:47:25.473Z,5.82
2023-04-11T02:50:29.742Z,5.82
2023-04-11T02:53:32.207Z,5.67
2023-04-11T02:56:37.977Z,5.93
2023-04-11T02:59:40.568Z,5.99
2023-04-11T03:02:43.611Z,6.01
2023-04-11T03:05:48.170Z,6.01
2023-04-11T03:08:55.207Z,6.14
2023-04-11T03:11:58.039Z,6.06
2023-04-11T03:15:00.562Z,6.07
2023-04-11T03:18:03.297Z,6.03
2023-04-11T03:21:08.198Z,6.00
2023-04-11T03:24:12.715Z,5.84
2023-04-11T03:27:16.485Z,5.82
2023-04-11T03:30:21.070Z,5.82
2023-04-11T03:33:23.776Z,5.98
2023-04-11T03:36:30.064Z,5.99
2023-04-11T03:39:38.231Z,5.93
2023-04-11T03:42:40.660Z,5.99
2023-04-11T03:45:46.581Z,6.12
2023-04-11T03:48:58.019Z,5.73
2023-04-11T03:52:02.252Z,5.91
2023-04-11T03:55:06.317Z,5.99
2023-04-11T03:58:08.986Z,5.81
2023-04-11T04:01:11.952Z,5.84
2023-04-11T04:04:15.016Z,5.96
2023-04-11T04:07:22.411Z,5.87
2023-04-11T04:10:27.170Z,5.93
2023-04-11T04:13:30.232Z,6.01
2023-04-11T04:16:46.099Z,6.12
2023-04-11T04:19:51.754Z,6.32
2023-04-11T04:22:54.477Z,6.01
2023-04-11T04:26:07.089Z,5.99
2023-04-11T04:29:12.734Z,6.08
2023-04-11T04:32:28.945Z,6.23
2023-04-11T04:35:36.227Z,6.63
2023-04-11T04:38:42.301Z,6.44
2023-04-11T04:41:50.077Z,6.41
2023-04-11T04:44:54.226Z,6.46
2023-04-11T04:47:56.939Z,6.76
2023-04-11T04:50:59.241Z,6.96
2023-04-11T04:54:01.899Z,7.09
2023-04-11T04:57:04.297Z,7.06
2023-04-11T05:00:12.126Z,7.72
2023-04-11T05:03:21.012Z,8.37
2023-04-11T05:06:32.254Z,8.70
2023-04-11T05:09:36.645Z,8.81
2023-04-11T05:13:05.213Z,9.12
2023-04-11T05:16:09.356Z,9.46
2023-04-11T05:19:11.815Z,9.87
2023-04-11T05:25:23.260Z,9.89
2023-04-11T05:28:27.332Z,10.41
2023-04-11T05:31:30.740Z,10.46
2023-04-11T05:34:34.526Z,10.66
2023-04-11T05:37:37.341Z,10.68
2023-04-11T05:40:40.053Z,10.54
2023-04-11T05:43:42.817Z,10.54
2023-04-11T05:46:45.578Z,10.53
2023-04-11T05:49:48.949Z,10.74
2023-04-11T05:52:51.296Z,10.70
2023-04-11T05:55:53.695Z,10.94
2023-04-11T05:58:56.193Z,11.05
2023-04-11T06:01:59.701Z,10.91
2023-04-11T06:05:04.109Z,11.00
2023-04-11T06:08:07.107Z,11.08
2023-04-11T06:11:09.740Z,11.19
2023-04-11T06:14:12.185Z,11.25
2023-04-11T06:17:14.672Z,11.45
2023-04-11T06:20:17.185Z,11.50
2023-04-11T06:23:19.551Z,11.56
2023-04-11T06:26:21.837Z,11.51
2023-04-11T06:29:24.187Z,11.77
2023-04-11T06:32:27.333Z,11.78
2023-04-11T06:35:30.560Z,12.09
2023-04-11T06:38:35.010Z,11.90
2023-04-11T06:41:37.317Z,12.05
2023-04-11T06:44:39.731Z,12.23
2023-04-11T06:47:42.272Z,12.24
2023-04-11T06:50:46.054Z,12.23
2023-04-11T06:53:48.326Z,12.11
2023-04-11T06:56:54.007Z,11.99
2023-04-11T06:59:56.453Z,12.22
2023-04-11T07:02:59.861Z,11.99
2023-04-11T07:06:02.633Z,12.53
2023-04-11T07:09:05.941Z,12.53
2023-04-11T07:12:08.514Z,12.54
2023-04-11T07:15:11.342Z,12.69
2023-04-11T07:18:15.062Z,12.56
2023-04-11T07:21:17.537Z,12.75
2023-04-11T07:24:21.217Z,12.95
2023-04-11T07:27:24.644Z,12.86
2023-04-11T07:30:27.934Z,12.99
2023-04-11T07:33:30.471Z,13.39
2023-04-11T07:36:32.782Z,13.45
2023-04-11T07:39:35.122Z,13.63
2023-04-11T07:42:37.413Z,13.73
2023-04-11T07:45:40.746Z,13.80
2023-04-11T07:48:43.442Z,13.99
2023-04-11T07:51:45.855Z,13.73
2023-04-11T07:54:48.154Z,13.78
2023-04-11T07:57:50.479Z,13.77
2023-04-11T08:00:53.738Z,13.78
2023-04-11T08:03:57.093Z,13.65
2023-04-11T08:07:00.278Z,13.76
2023-04-11T08:10:02.606Z,13.82
2023-04-11T08:13:04.947Z,13.85
2023-04-11T08:16:09.975Z,14.06
2023-04-11T08:19:12.597Z,14.07
2023-04-11T08:22:14.904Z,14.02
2023-04-11T08:25:20.042Z,14.00
2023-04-11T08:28:22.861Z,14.18
2023-04-11T08:31:25.289Z,14.03
2023-04-11T08:34:27.640Z,14.08
2023-04-11T08:37:30.925Z,14.10
2023-04-11T08:40:33.231Z,14.41
2023-04-11T08:43:36.409Z,14.41
2023-04-11T08:46:42.785Z,14.25
2023-04-11T08:49:45.468Z,14.13
2023-04-11T08:52:49.192Z,14.24
2023-04-11T08:55:51.502Z,14.29
2023-04-11T08:58:53.874Z,14.13
2023-04-11T09:02:09.554Z,14.17
2023-04-11T09:05:25.759Z,14.04
2023-04-11T09:08:38.653Z,14.12
2023-04-11T09:11:55.456Z,14.24
2023-04-11T09:14:57.956Z,14.37
2023-04-11T09:18:01.107Z,14.52
2023-04-11T09:21:08.798Z,14.44
2023-04-11T09:24:15.658Z,14.78
2023-04-11T09:27:20.476Z,15.00
2023-04-11T09:30:27.152Z,14.79
2023-04-11T09:33:32.051Z,15.07
2023-04-11T09:36:35.747Z,14.97
2023-04-11T09:39:38.083Z,15.26
2023-04-11T09:42:42.086Z,15.20
2023-04-11T09:45:54.123Z,15.40
2023-04-11T09:48:57.194Z,15.21
2023-04-11T09:52:00.677Z,15.33
2023-04-11T09:55:04.922Z,15.48
2023-04-11T09:58:10.562Z,15.61
2023-04-11T10:01:14.294Z,15.63
2023-04-11T10:04:16.901Z,15.63
2023-04-11T10:07:20.355Z,15.72
2023-04-11T10:10:24.445Z,15.62
2023-04-11T10:13:36.078Z,15.87
2023-04-11T10:17:20.599Z,16.13
2023-04-11T10:20:39.265Z,16.26
2023-04-11T10:24:21.300Z,16.33
2023-04-11T10:28:10.604Z,16.35
2023-04-11T10:31:14.312Z,16.01
2023-04-11T10:34:17.008Z,16.01
2023-04-11T10:37:21.611Z,16.10
2023-04-11T10:40:25.327Z,15.75
2023-04-11T10:43:28.478Z,15.92
2023-04-11T10:46:30.820Z,16.01
2023-04-11T10:49:35.204Z,16.03
2023-04-11T10:52:41.938Z,16.01
2023-04-11T10:55:47.100Z,15.87
2023-04-11T10:58:51.936Z,16.24
2023-04-11T11:02:01.822Z,16.10
2023-04-11T11:05:15.547Z,16.15
2023-04-11T11:08:30.666Z,15.96
2023-04-11T11:11:33.739Z,15.98
2023-04-11T11:14:41.548Z,16.09
2023-04-11T11:17:44.980Z,16.23
2023-04-11T11:20:47.588Z,16.08
2023-04-11T11:24:02.815Z,16.01
2023-04-11T11:27:05.415Z,16.09
2023-04-11T11:30:11.644Z,16.13
2023-04-11T11:33:18.634Z,15.98
2023-04-11T11:36:21.246Z,16.47
2023-04-11T11:39:24.713Z,16.81
2023-04-11T11:42:28.210Z,16.98
2023-04-11T11:45:33.102Z,16.90
2023-04-11T11:48:35.692Z,16.89
2023-04-11T11:51:48.316Z,16.56
2023-04-11T11:54:50.908Z,16.46
2023-04-11T11:57:53.606Z,16.65
2023-04-11T12:00:56.260Z,16.54
2023-04-11T12:03:59.422Z,16.63
2023-04-11T12:07:11.965Z,16.73
2023-04-11T12:10:16.541Z,15.98
2023-04-11T12:13:20.910Z,16.12
2023-04-11T12:16:23.780Z,16.46
2023-04-11T12:19:27.936Z,16.17
2023-04-11T12:22:30.334Z,16.14
2023-04-11T12:25:32.912Z,16.18
2023-04-11T12:28:35.243Z,16.11
2023-04-11T12:31:37.628Z,16.10
2023-04-11T12:34:40.323Z,16.16
2023-04-11T12:37:43.085Z,16.54
2023-04-11T12:40:46.502Z,16.56
2023-04-11T12:43:48.939Z,17.10
2023-04-11T12:46:51.498Z,16.45
2023-04-11T12:49:54.759Z,16.63
2023-04-11T12:52:57.148Z,17.10
2023-04-11T12:55:59.710Z,16.84
2023-04-11T12:59:02.368Z,17.10
2023-04-11T13:02:04.930Z,17.04
2023-04-11T13:05:09.896Z,16.71
2023-04-11T13:08:12.802Z,16.69
2023-04-11T13:11:15.081Z,16.76
2023-04-11T13:14:17.377Z,17.09
2023-04-11T13:17:19.684Z,16.50
2023-04-11T13:20:22.052Z,16.55
2023-04-11T13:23:24.345Z,16.31
2023-04-11T13:26:26.767Z,16.31
2023-04-11T13:29:29.220Z,16.08
2023-04-11T13:32:32.436Z,16.01
2023-04-11T13:35:34.970Z,15.84
2023-04-11T13:38:37.422Z,15.82
2023-04-11T13:41:40.025Z,15.62
2023-04-11T13:44:42.499Z,15.38
2023-04-11T13:47:45.303Z,15.38
2023-04-11T13:50:47.648Z,15.28
2023-04-11T13:53:50.091Z,15.43
2023-04-11T13:56:52.458Z,15.61
2023-04-11T13:59:54.851Z,15.69
2023-04-11T14:02:57.335Z,15.99
2023-04-11T14:06:03.695Z,16.31
2023-04-11T14:09:06.584Z,16.50
2023-04-11T14:12:09.057Z,16.68
2023-04-11T14:15:12.030Z,16.36
2023-04-11T14:18:14.711Z,16.24
2023-04-11T14:21:17.269Z,16.05
2023-04-11T14:24:22.222Z,15.96
2023-04-11T14:27:25.173Z,15.89
2023-04-11T14:30:28.169Z,15.94
2023-04-11T14:33:30.625Z,15.58
2023-04-11T14:36:33.474Z,15.32
2023-04-11T14:39:36.222Z,15.21
2023-04-11T14:42:39.654Z,15.23
2023-04-11T14:45:42.064Z,15.11
2023-04-11T14:48:45.096Z,15.02
2023-04-11T14:51:48.377Z,14.87
2023-04-11T14:54:51.244Z,15.07
2023-04-11T14:57:56.050Z,14.76
2023-04-11T15:00:58.660Z,14.89
2023-04-11T15:04:01.775Z,15.01
2023-04-11T15:07:04.940Z,15.05
2023-04-11T15:10:08.167Z,15.00
2023-04-11T15:13:11.991Z,15.14
2023-04-11T15:16:14.632Z,14.88
2023-04-11T15:19:17.052Z,14.97
2023-04-11T15:22:19.444Z,14.88
2023-04-11T15:25:22.697Z,14.97
2023-04-11T15:28:26.761Z,14.79
2023-04-11T15:31:29.498Z,14.81
2023-04-11T15:34:32.303Z,14.88
2023-04-11T15:37:34.969Z,14.50
2023-04-11T15:40:37.889Z,14.73
2023-04-11T15:43:40.559Z,14.57
2023-04-11T15:46:43.205Z,14.62
2023-04-11T15:49:46.253Z,14.59
2023-04-11T15:52:48.679Z,14.13
2023-04-11T15:55:51.487Z,14.58
2023-04-11T15:58:53.860Z,14.38
2023-04-11T16:01:56.482Z,14.14
2023-04-11T16:05:01.529Z,14.12
2023-04-11T16:08:05.521Z,14.16
2023-04-11T16:11:07.908Z,14.15
2023-04-11T16:14:11.296Z,14.11
2023-04-11T16:17:19.139Z,14.29
2023-04-11T16:20:22.476Z,13.88
2023-04-11T16:23:24.955Z,13.83
2023-04-11T16:26:27.309Z,13.66
2023-04-11T16:29:29.769Z,13.52
2023-04-11T16:32:33.118Z,13.75
2023-04-11T16:35:36.136Z,13.67
2023-04-11T16:38:39.243Z,13.97
2023-04-11T16:41:41.740Z,12.78
2023-04-11T16:44:44.310Z,12.02
2023-04-11T16:47:46.671Z,11.51
2023-04-11T16:50:49.162Z,11.38
2023-04-11T16:53:53.350Z,11.17
2023-04-11T16:56:55.911Z,10.98
2023-04-11T16:59:58.808Z,10.95
2023-04-11T17:03:01.362Z,10.69
2023-04-11T17:06:04.083Z,10.59
2023-04-11T17:09:06.842Z,10.34
2023-04-11T17:12:09.336Z,10.44
2023-04-11T17:15:12.298Z,10.24
2023-04-11T17:18:15.187Z,10.12
2023-04-11T17:21:17.842Z,10.35
2023-04-11T17:24:20.572Z,10.16
2023-04-11T17:27:23.392Z,9.89
2023-04-11T17:30:26.041Z,9.97
2023-04-11T17:33:28.628Z,10.06
2023-04-11T17:36:31.235Z,9.98
2023-04-11T17:39:33.616Z,9.96
2023-04-11T17:42:36.106Z,9.89
2023-04-11T17:45:38.729Z,9.98
2023-04-11T17:48:42.219Z,9.99
2023-04-11T17:51:56.389Z,9.71
2023-04-11T17:55:01.373Z,9.65
2023-04-11T17:58:03.979Z,9.63
2023-04-11T18:01:11.241Z,9.71
2023-04-11T18:04:16.177Z,9.01
2023-04-11T18:07:18.714Z,9.62
2023-04-11T18:10:23.286Z,9.38
2023-04-11T18:13:27.319Z,9.47
2023-04-11T18:16:29.805Z,9.50
2023-04-11T18:19:32.202Z,9.52
2023-04-11T18:22:35.860Z,9.48
2023-04-11T18:25:38.258Z,9.28
2023-04-11T18:28:40.961Z,9.23
2023-04-11T18:31:43.566Z,9.09
2023-04-11T18:34:46.055Z,8.98
2023-04-11T18:37:48.646Z,9.14
2023-04-11T18:40:54.941Z,9.09
2023-04-11T18:43:59.108Z,9.05
2023-04-11T18:47:05.576Z,8.99
2023-04-11T18:50:09.408Z,9.17
2023-04-11T18:53:13.753Z,9.02
2023-04-11T18:56:16.917Z,9.17
2023-04-11T18:59:24.015Z,9.22
2023-04-11T19:02:27.633Z,9.12
2023-04-11T19:05:30.789Z,8.82
2023-04-11T19:08:33.856Z,8.81
2023-04-11T19:11:38.283Z,8.76
2023-04-11T19:14:40.703Z,8.56
2023-04-11T19:17:43.337Z,8.56
2023-04-11T19:20:46.179Z,8.67
2023-04-11T19:23:49.707Z,8.56
2023-04-11T19:26:53.389Z,8.46
2023-04-11T19:29:57.048Z,7.87
2023-04-11T19:32:59.537Z,8.47
2023-04-11T19:36:01.969Z,8.42
2023-04-11T19:39:04.493Z,8.24
2023-04-11T19:42:10.810Z,7.91
2023-04-11T19:45:14.451Z,7.86
2023-04-11T19:48:17.041Z,8.15
2023-04-11T19:51:19.428Z,8.11
2023-04-11T19:54:21.748Z,8.03
2023-04-11T19:57:25.818Z,7.98
2023-04-11T20:00:32.023Z,7.79
2023-04-11T20:03:34.615Z,7.92
2023-04-11T20:06:37.204Z,8.01
2023-04-11T20:09:39.783Z,7.96
2023-04-11T20:12:42.412Z,8.14
2023-04-11T20:15:45.032Z,8.09
2023-04-11T20:18:47.402Z,8.13
2023-04-11T20:21:49.635Z,8.13
2023-04-11T20:24:52.584Z,7.79
2023-04-11T20:27:54.927Z,7.50
2023-04-11T20:30:59.154Z,7.62
2023-04-11T20:34:01.588Z,7.98
2023-04-11T20:37:06.793Z,8.08
2023-04-11T20:40:13.782Z,8.04
2023-04-11T20:43:17.644Z,7.93
2023-04-11T20:49:21.320Z,7.53
2023-04-11T20:52:23.687Z,7.44
2023-04-11T20:55:26.491Z,7.50
2023-04-11T20:58:29.057Z,7.52
2023-04-11T21:01:32.785Z,7.80
2023-04-11T21:04:35.786Z,7.85
2023-04-11T21:07:38.598Z,7.80
2023-04-11T21:10:41.230Z,7.57
2023-04-11T21:13:43.590Z,7.72
2023-04-11T21:16:46.102Z,7.77
2023-04-11T21:19:48.370Z,7.81
2023-04-11T21:22:55.051Z,7.81
2023-04-11T21:25:57.362Z,7.75
2023-04-11T21:28:59.738Z,7.79
2023-04-11T21:32:02.138Z,7.65
2023-04-11T21:35:09.613Z,7.59
2023-04-11T21:38:12.574Z,7.53
2023-04-11T21:41:14.933Z,7.13
2023-04-11T21:44:17.375Z,6.89
2023-04-11T21:47:20.014Z,6.98
2023-04-11T21:50:22.387Z,7.01
2023-04-11T21:53:24.701Z,6.74
2023-04-11T21:56:27.058Z,6.93
2023-04-11T21:59:29.487Z,7.34
2023-04-11T22:02:32.251Z,6.89
2023-04-11T22:05:34.947Z,6.86
2023-04-11T22:08:39.319Z,6.91
2023-04-11T22:11:42.368Z,6.89
2023-04-11T22:14:44.783Z,6.82
2023-04-11T22:17:50.860Z,6.78
2023-04-11T22:20:56.011Z,6.81
2023-04-11T22:24:02.342Z,6.76
2023-04-11T22:27:06.421Z,6.94
2023-04-11T22:30:09.183Z,6.86
2023-04-11T22:33:13.820Z,6.99
2023-04-11T22:36:17.125Z,7.00
2023-04-11T22:39:20.340Z,7.04
2023-04-11T22:42:22.897Z,6.87
2023-04-11T22:45:25.874Z,6.98
2023-04-11T22:48:29.826Z,7.03
2023-04-11T22:51:32.135Z,7.09
2023-04-11T22:54:35.326Z,7.16
2023-04-11T22:57:41.472Z,6.78
2023-04-11T23:00:46.196Z,6.87
2023-04-11T23:03:48.784Z,6.89
2023-04-11T23:06:52.150Z,7.13
2023-04-11T23:09:54.627Z,7.13
2023-04-11T23:12:56.918Z,7.09
2023-04-11T23:16:02.547Z,6.86
2023-04-11T23:19:05.126Z,7.03
2023-04-11T23:22:07.510Z,7.00
2023-04-11T23:25:15.362Z,6.81
2023-04-11T23:28:17.812Z,6.91
2023-04-11T23:31:20.244Z,6.65
2023-04-11T23:34:22.629Z,6.87
2023-04-11T23:37:27.474Z,6.85
2023-04-11T23:40:30.615Z,6.75
2023-04-11T23:43:33.246Z,6.84
2023-04-11T23:46:35.906Z,6.86
2023-04-11T23:49:38.335Z,6.87
2023-04-11T23:52:40.827Z,6.76
2023-04-11T23:55:43.369Z,6.77
2023-04-11T23:58:45.802Z,6.79
